Time;durP1;ratioP1;P1;durP2;ratioP2;P2;SDS_P1;SDS_P2;PMS_P1;PMS_P2;Temp;Humidity;BMP_temperature;BMP_pressure;BME280_temperature;BME280_humidity;BME280_pressure;Samples;Min_cycle;Max_cycle;Signal;HPM_P1;HPM_P2
2022/10/09 00:01:22;;;;;;;11.97;9.23;;;;;;;20.83;46.59;101032.66;1669578;84;21045;-80
2022/10/09 00:03:50;;;;;;;13.43;10.10;;;;;;;20.83;46.59;101033.23;1656293;86;21089;-80
2022/10/09 00:06:22;;;;;;;12.75;9.78;;;;;;;20.82;46.60;101036.55;1656118;85;21073;-81
2022/10/09 00:08:48;;;;;;;14.03;9.98;;;;;;;20.82;46.59;101033.78;1656288;85;21180;-80
2022/10/09 00:11:19;;;;;;;15.48;10.70;;;;;;;20.82;46.57;101038.50;1698201;82;21095;-80
2022/10/09 00:13:46;;;;;;;14.47;10.38;;;;;;;20.82;46.58;101035.17;1738655;82;22202;-80
2022/10/09 00:16:13;;;;;;;12.30;9.65;;;;;;;20.81;46.57;101029.38;1739284;82;21128;-80
2022/10/09 00:18:39;;;;;;;17.07;11.00;;;;;;;20.81;46.56;101030.77;1739354;82;21049;-80
2022/10/09 00:21:05;;;;;;;12.33;9.23;;;;;;;20.81;46.55;101033.53;1739152;82;21531;-81
2022/10/09 00:23:37;;;;;;;13.62;9.45;;;;;;;20.81;46.55;101033.53;1717771;82;21092;-80
2022/10/09 00:26:04;;;;;;;14.75;9.93;;;;;;;20.82;46.54;101031.59;1739023;82;21485;-80
2022/10/09 00:28:30;;;;;;;13.68;9.60;;;;;;;20.82;46.55;101033.78;1738951;82;21092;-81
2022/10/09 00:30:56;;;;;;;13.58;10.03;;;;;;;20.83;46.55;101030.46;1739235;82;21072;-80
2022/10/09 00:33:23;;;;;;;12.25;9.90;;;;;;;20.80;46.56;101027.73;1739542;82;21068;-80
2022/10/09 00:35:49;;;;;;;14.00;9.98;;;;;;;20.81;46.57;101028.56;1738649;82;21495;-80
2022/10/09 00:38:16;;;;;;;12.40;10.13;;;;;;;20.81;46.57;101025.80;1709591;83;21619;-80
2022/10/09 00:40:42;;;;;;;13.65;9.63;;;;;;;20.81;46.57;101028.00;1709792;83;21083;-80
2022/10/09 00:43:18;;;;;;;14.13;9.35;;;;;;;20.81;46.59;101028.56;1709516;83;21151;-80
2022/10/09 00:45:52;;;;;;;12.80;9.68;;;;;;;20.80;46.58;101029.13;1709485;83;21132;-80
2022/10/09 00:48:18;;;;;;;14.73;10.63;;;;;;;20.80;46.58;101037.41;1704558;83;21539;-80
2022/10/09 00:50:48;;;;;;;14.10;9.88;;;;;;;20.80;46.58;101032.45;1673908;84;21727;-81
2022/10/09 00:53:16;;;;;;;14.85;9.98;;;;;;;20.80;46.58;101035.22;1674432;84;21045;-81
2022/10/09 00:55:43;;;;;;;14.13;9.55;;;;;;;20.79;46.58;101033.01;1674408;84;21109;-80
2022/10/09 00:58:11;;;;;;;14.10;9.55;;;;;;;20.79;46.57;101032.22;1700216;84;21061;-80
2022/10/09 01:00:37;;;;;;;15.18;10.08;;;;;;;20.80;46.56;101032.45;1700704;84;21140;-80
2022/10/09 01:03:04;;;;;;;12.63;9.75;;;;;;;20.80;46.56;101028.30;1700027;84;21549;-80
2022/10/09 01:05:41;;;;;;;13.15;9.68;;;;;;;20.79;46.56;101027.48;1700332;83;21041;-80
2022/10/09 01:08:13;;;;;;;13.70;9.58;;;;;;;20.79;46.56;101019.78;1645754;84;21570;-80
2022/10/09 01:10:51;;;;;;;15.05;10.38;;;;;;;20.79;46.57;101021.95;1676965;83;21538;-80
2022/10/09 01:13:34;;;;;;;13.95;10.05;;;;;;;20.79;46.55;101021.95;1686495;83;21123;-80
2022/10/09 01:16:10;;;;;;;14.40;10.43;;;;;;;20.78;46.57;101020.34;1709174;83;21696;-80
2022/10/09 01:18:50;;;;;;;14.00;9.55;;;;;;;20.78;46.56;101016.19;1667604;83;21135;-80
2022/10/09 01:21:27;;;;;;;12.82;9.93;;;;;;;20.78;46.56;101018.95;1706342;83;21530;-80
2022/10/09 01:24:17;;;;;;;13.22;9.80;;;;;;;20.78;46.56;101025.87;1708994;83;21288;-80
2022/10/09 01:27:01;;;;;;;11.93;9.30;;;;;;;20.76;46.54;101028.11;1709915;82;21085;-80
2022/10/09 01:29:39;;;;;;;13.88;9.95;;;;;;;20.77;46.56;101030.32;1708625;82;21124;-80
2022/10/09 01:32:05;;;;;;;14.00;10.03;;;;;;;20.76;46.58;101032.27;1709005;83;21033;-80
2022/10/09 01:34:31;;;;;;;12.28;9.45;;;;;;;20.76;46.59;101029.50;1709479;82;21045;-81
2022/10/09 01:36:58;;;;;;;14.05;9.73;;;;;;;20.76;46.59;101029.50;1709714;82;21056;-80
2022/10/09 01:39:24;;;;;;;14.05;10.05;;;;;;;20.76;46.62;101030.88;1709647;83;21060;-80
2022/10/09 01:41:51;;;;;;;13.83;9.20;;;;;;;20.76;46.60;101026.73;1687125;83;21861;-80
2022/10/09 01:44:29;;;;;;;13.43;10.15;;;;;;;20.76;46.63;101028.67;1687383;83;21116;-80
2022/10/09 01:46:56;;;;;;;13.08;9.75;;;;;;;20.76;46.62;101025.34;1709025;82;21060;-80
2022/10/09 01:49:47;;;;;;;13.50;9.60;;;;;;;20.76;46.62;101026.73;1709556;83;21531;-80
2022/10/09 01:52:31;;;;;;;13.65;10.03;;;;;;;20.76;46.63;101014.29;1704165;83;21097;-80
2022/10/09 01:55:12;;;;;;;13.48;9.55;;;;;;;20.76;46.63;101019.00;1701274;82;21608;-81
2022/10/09 01:57:51;;;;;;;;;;;;;;;20.75;46.63;101018.77;1703418;84;21089;-80
2022/10/09 02:00:17;;;;;;;14.58;9.45;;;;;;;20.75;46.61;101021.53;1702092;83;20183;-81
2022/10/09 02:02:44;;;;;;;13.80;10.20;;;;;;;20.73;46.61;101019.07;1686913;83;21079;-80
2022/10/09 02:05:18;;;;;;;13.20;9.93;;;;;;;20.73;46.60;101021.84;1709385;82;21620;-80
2022/10/09 02:07:44;;;;;;;12.82;10.20;;;;;;;20.74;46.60;101017.13;1709306;82;21591;-80
2022/10/09 02:10:11;;;;;;;13.88;10.10;;;;;;;20.74;46.60;101018.52;1709164;82;21040;-80
2022/10/09 02:12:40;;;;;;;12.80;10.20;;;;;;;20.73;46.60;101014.92;1709170;82;21061;-80
2022/10/09 02:15:07;;;;;;;13.48;9.60;;;;;;;20.74;46.61;101011.59;1709930;82;21096;-80
2022/10/09 02:17:45;;;;;;;12.10;9.58;;;;;;;20.74;46.62;101011.59;1709383;82;21543;-80
2022/10/09 02:20:25;;;;;;;15.72;10.30;;;;;;;20.75;46.61;101018.77;1709801;83;21178;-80
2022/10/09 02:22:51;;;;;;;13.43;9.60;;;;;;;20.75;46.63;101022.92;1704916;82;21093;-80
2022/10/09 02:25:17;;;;;;;13.25;10.13;;;;;;;20.73;46.61;101016.30;1709487;82;21535;-81
2022/10/09 02:27:45;;;;;;;13.90;10.32;;;;;;;20.74;46.60;101004.69;1708162;82;21463;-80
2022/10/09 02:30:12;;;;;;;14.33;9.53;;;;;;;20.74;46.63;101011.03;1684817;83;21622;-80
2022/10/09 02:32:38;;;;;;;13.15;9.20;;;;;;;20.74;46.64;101012.42;1685330;84;21120;-80
2022/10/09 02:35:05;;;;;;;14.33;9.80;;;;;;;20.74;46.64;101015.75;1685164;83;21012;-80
2022/10/09 02:37:31;;;;;;;13.55;10.65;;;;;;;20.74;46.63;101023.48;1708582;82;21095;-80
2022/10/09 02:39:57;;;;;;;12.85;9.15;;;;;;;20.74;46.61;101023.48;1741645;82;22139;-80
2022/10/09 02:42:24;;;;;;;15.03;10.93;;;;;;;20.75;46.61;101022.92;1741531;82;21060;-80
2022/10/09 02:44:51;;;;;;;14.40;10.40;;;;;;;20.75;46.60;101022.33;1741157;82;21878;-80
2022/10/09 02:47:18;;;;;;;14.78;9.85;;;;;;;20.74;46.58;101026.24;1720352;82;21048;-80
2022/10/09 02:49:44;;;;;;;13.08;9.90;;;;;;;20.75;46.60;101032.00;1741312;82;21535;-80
2022/10/09 02:52:10;;;;;;;14.53;10.82;;;;;;;20.76;46.62;101035.59;1741035;82;21049;-80
2022/10/09 02:54:37;;;;;;;12.45;10.00;;;;;;;20.75;46.60;101037.53;1741140;80;21068;-80
2022/10/09 02:57:03;;;;;;;15.05;10.10;;;;;;;20.75;46.60;101033.38;1741555;82;21137;-80
2022/10/09 02:59:30;;;;;;;12.15;9.93;;;;;;;20.75;46.59;101035.36;1741419;82;21073;-80
2022/10/09 03:01:57;;;;;;;15.35;10.45;;;;;;;20.75;46.60;101037.53;1741797;82;21096;-80
2022/10/09 03:04:23;;;;;;;14.65;10.50;;;;;;;20.75;46.59;101032.59;1741825;82;21033;-80
2022/10/09 03:06:49;;;;;;;12.58;9.75;;;;;;;20.75;46.61;101033.98;1685045;83;21099;-80
2022/10/09 03:09:16;;;;;;;13.43;10.48;;;;;;;20.75;46.58;101029.23;1685223;84;21608;-80
2022/10/09 03:11:42;;;;;;;13.93;10.05;;;;;;;20.75;46.58;101025.09;1667693;84;21057;-80
2022/10/09 03:14:08;;;;;;;15.98;10.35;;;;;;;20.75;46.59;101028.45;1712481;82;21056;-81
2022/10/09 03:16:35;;;;;;;13.83;9.35;;;;;;;20.74;46.58;101026.80;1739780;82;21625;-80
2022/10/09 03:19:01;;;;;;;14.95;10.30;;;;;;;20.74;46.55;101026.24;1739877;82;21036;-80
2022/10/09 03:21:27;;;;;;;15.05;10.30;;;;;;;20.73;46.58;101019.07;1739513;82;21124;-80
2022/10/09 03:23:55;;;;;;;11.97;9.73;;;;;;;20.74;46.57;101029.01;1739802;82;21072;-80
2022/10/09 03:26:23;;;;;;;14.33;10.53;;;;;;;20.74;46.58;101026.80;1739684;82;21306;-80
2022/10/09 03:28:50;;;;;;;15.50;9.85;;;;;;;20.74;46.57;101026.80;1739531;82;21112;-80
2022/10/09 03:31:17;;;;;;;14.63;11.08;;;;;;;20.74;46.55;101032.34;1739954;82;21096;-80
2022/10/09 03:33:44;;;;;;;14.73;10.48;;;;;;;20.73;46.53;101031.52;1739780;82;21539;-80
2022/10/09 03:36:10;;;;;;;12.70;9.48;;;;;;;20.74;46.53;101027.63;1739447;82;22136;-80
2022/10/09 03:38:37;;;;;;;13.75;9.48;;;;;;;20.73;46.53;101030.13;1739731;82;21044;-80
2022/10/09 03:41:03;;;;;;;15.55;10.40;;;;;;;20.73;46.55;101028.75;1739869;82;21104;-80
2022/10/09 03:43:30;;;;;;;12.70;9.48;;;;;;;20.73;46.55;101028.75;1739687;82;21080;-81
2022/10/09 03:45:56;;;;;;;13.22;9.80;;;;;;;20.73;46.55;101021.84;1740017;82;21598;-80
2022/10/09 03:48:22;;;;;;;14.53;10.45;;;;;;;20.73;46.55;101029.31;1739928;82;21447;-80
2022/10/09 03:50:49;;;;;;;13.03;9.28;;;;;;;20.73;46.58;101032.89;1714406;82;21041;-80
2022/10/09 03:53:15;;;;;;;13.10;9.73;;;;;;;20.72;46.56;101029.87;1700225;84;21022;-80
2022/10/09 03:55:41;;;;;;;14.43;10.50;;;;;;;20.73;46.57;101027.93;1700195;82;21050;-81
2022/10/09 03:58:08;;;;;;;14.93;9.68;;;;;;;20.73;46.59;101021.02;1699602;83;21703;-80
2022/10/09 04:00:34;;;;;;;13.25;9.25;;;;;;;20.72;46.58;101022.96;1700148;84;21033;-81
2022/10/09 04:03:00;;;;;;;12.68;9.05;;;;;;;20.72;46.58;101022.14;1700323;84;21156;-80
2022/10/09 04:05:28;;;;;;;13.90;10.08;;;;;;;20.72;46.59;101015.23;1700037;84;21114;-81
2022/10/09 04:07:55;;;;;;;14.40;9.93;;;;;;;20.71;46.56;101014.41;1700392;84;21033;-81
2022/10/09 04:10:22;;;;;;;12.47;9.08;;;;;;;20.72;46.56;101016.61;1700121;84;21563;-81
2022/10/09 04:12:48;;;;;;;11.65;9.08;;;;;;;20.73;46.59;101016.30;1699931;84;21702;-80
2022/10/09 04:15:14;;;;;;;15.93;9.73;;;;;;;20.72;46.60;101014.66;1673916;84;21101;-80
2022/10/09 04:17:41;;;;;;;13.10;10.03;;;;;;;20.72;46.59;101016.61;1700432;84;21152;-80
2022/10/09 04:20:08;;;;;;;14.53;9.63;;;;;;;20.72;46.55;101017.99;1700070;83;21113;-80
2022/10/09 04:22:34;;;;;;;11.88;9.58;;;;;;;20.72;46.58;101015.23;1700329;84;21108;-80
2022/10/09 04:25:00;;;;;;;12.60;9.88;;;;;;;20.71;46.54;101015.79;1700331;84;21579;-80
2022/10/09 04:27:27;;;;;;;12.78;9.83;;;;;;;20.71;46.53;101016.38;1698761;82;21583;-81
2022/10/09 04:29:53;;;;;;;13.20;10.30;;;;;;;20.71;46.54;101018.55;1695476;84;21045;-80
2022/10/09 04:32:19;;;;;;;13.08;9.53;;;;;;;20.71;46.52;101022.70;1695505;84;21045;-80
2022/10/09 04:34:46;;;;;;;14.35;9.80;;;;;;;20.72;46.52;101020.76;1695321;83;21489;-80
2022/10/09 04:37:12;;;;;;;14.00;9.53;;;;;;;20.72;46.53;101020.76;1695481;83;21120;-81
2022/10/09 04:39:38;;;;;;;14.90;9.25;;;;;;;20.72;46.54;101029.05;1695630;83;21101;-80
2022/10/09 04:42:05;;;;;;;12.45;9.30;;;;;;;20.71;46.56;101031.59;1695397;84;21662;-80
2022/10/09 04:44:31;;;;;;;11.80;9.45;;;;;;;20.72;46.56;101035.96;1695568;83;21013;-80
2022/10/09 04:46:58;;;;;;;12.80;9.60;;;;;;;20.71;46.55;101035.73;1695615;83;21733;-80
2022/10/09 04:49:24;;;;;;;13.45;9.25;;;;;;;20.70;46.58;101037.67;1695265;84;21037;-80
2022/10/09 04:51:50;;;;;;;13.50;10.13;;;;;;;20.71;46.59;101037.12;1675349;84;21049;-81
2022/10/09 04:54:16;;;;;;;12.98;9.48;;;;;;;20.69;46.56;101042.12;1700138;83;21134;-81
2022/10/09 04:56:43;;;;;;;11.95;9.55;;;;;;;20.70;46.55;101050.69;1709179;82;21571;-80
2022/10/09 04:59:09;;;;;;;13.65;10.10;;;;;;;20.71;46.56;101055.88;1709479;82;22234;-80
2022/10/09 05:01:36;;;;;;;13.48;9.70;;;;;;;20.70;46.54;101054.27;1709593;83;21294;-80
2022/10/09 05:04:02;;;;;;;12.93;10.08;;;;;;;20.70;46.52;101052.88;1709592;83;21057;-80
2022/10/09 05:06:28;;;;;;;12.95;9.78;;;;;;;20.71;46.50;101059.23;1709677;83;21112;-81
2022/10/09 05:09:00;;;;;;;13.45;9.70;;;;;;;20.72;46.52;101070.52;1709453;83;21554;-80
2022/10/09 05:11:27;;;;;;;14.18;9.85;;;;;;;20.70;46.50;101072.23;1663824;83;21934;-80
2022/10/09 05:13:54;;;;;;;12.47;9.30;;;;;;;20.70;46.52;101068.09;1675630;84;21036;-80
2022/10/09 05:16:26;;;;;;;16.45;11.25;;;;;;;20.70;46.49;101073.63;1676006;84;20989;-81
2022/10/09 05:18:55;;;;;;;13.08;9.90;;;;;;;20.71;46.50;101075.23;1675554;84;21071;-80
2022/10/09 05:21:21;;;;;;;12.40;10.15;;;;;;;20.70;46.49;101072.23;1675853;85;21114;-80
2022/10/09 05:23:47;;;;;;;14.10;9.55;;;;;;;20.70;46.49;101076.95;1675661;85;21095;-81
2022/10/09 05:26:17;;;;;;;13.43;9.95;;;;;;;20.69;46.50;101080.27;1675266;84;21444;-80
2022/10/09 05:28:44;;;;;;;11.85;9.48;;;;;;;20.70;46.53;101080.53;1675349;85;21112;-80
2022/10/09 05:31:18;;;;;;;12.90;9.80;;;;;;;20.70;46.49;101087.45;1659061;85;21064;-80
2022/10/09 05:33:50;;;;;;;14.13;10.07;;;;;;;20.70;46.49;101086.06;1685729;85;21611;-81
2022/10/09 05:36:17;;;;;;;15.60;10.85;;;;;;;20.70;46.49;101082.48;1675994;84;21801;-80
2022/10/09 05:38:44;;;;;;;13.20;10.38;;;;;;;20.69;46.50;101087.19;1667819;85;21626;-81
2022/10/09 05:41:13;;;;;;;13.05;8.68;;;;;;;20.70;46.49;101086.62;1656488;85;21195;-80
2022/10/09 05:43:42;;;;;;;13.78;9.60;;;;;;;20.70;46.50;101092.16;1656744;86;21156;-80
2022/10/09 05:46:19;;;;;;;13.22;10.25;;;;;;;20.70;46.49;101090.77;1656889;85;21100;-80
2022/10/09 05:48:51;;;;;;;12.65;10.08;;;;;;;20.70;46.50;101113.71;1657030;85;21272;-81
2022/10/09 05:51:21;;;;;;;14.58;10.15;;;;;;;20.70;46.49;101111.50;1656932;85;21588;-80
2022/10/09 05:53:48;;;;;;;15.63;10.25;;;;;;;20.69;46.49;101114.83;1656643;85;21875;-81
2022/10/09 05:56:29;;;;;;;14.60;9.50;;;;;;;20.69;46.48;101112.06;1629156;86;21572;-80
2022/10/09 05:58:56;;;;;;;;;;;;;;;20.70;46.50;101116.48;1672152;84;21071;-80
2022/10/09 06:01:25;;;;;;;13.22;8.90;;;;;;;20.69;46.48;101123.69;1666830;84;21974;-80
2022/10/09 06:03:54;;;;;;;13.15;9.55;;;;;;;20.68;46.47;101127.58;1666630;85;21523;-80
2022/10/09 06:06:22;;;;;;;14.05;9.95;;;;;;;20.68;46.49;101127.02;1666400;85;21068;-80
2022/10/09 06:08:48;;;;;;;13.30;9.25;;;;;;;20.67;46.49;101128.13;1691161;83;21049;-80
2022/10/09 06:11:23;;;;;;;12.25;9.43;;;;;;;20.69;46.49;101131.98;1702188;84;21092;-80
2022/10/09 06:13:51;;;;;;;12.68;9.70;;;;;;;20.68;46.47;101130.34;1738100;81;21798;-80
2022/10/09 06:16:17;;;;;;;14.55;9.25;;;;;;;20.68;46.49;101128.95;1719699;82;21037;-80
2022/10/09 06:18:48;;;;;;;12.00;9.43;;;;;;;20.69;46.49;101130.59;1697690;83;21033;-80
2022/10/09 06:21:14;;;;;;;12.90;9.50;;;;;;;20.70;46.49;101132.24;1677638;84;21659;-80
2022/10/09 06:23:40;;;;;;;14.30;9.98;;;;;;;20.69;46.48;101138.34;1677785;84;21060;-80
2022/10/09 06:26:12;;;;;;;14.25;9.70;;;;;;;20.69;46.47;101142.48;1697731;83;21291;-80
2022/10/09 06:28:38;;;;;;;15.32;9.65;;;;;;;20.69;46.47;101147.19;1677964;84;21044;-80
2022/10/09 06:31:13;;;;;;;12.95;9.43;;;;;;;20.70;46.47;101142.74;1697756;84;21005;-80
2022/10/09 06:33:41;;;;;;;13.95;9.45;;;;;;;20.70;46.46;101144.69;1697217;83;21049;-80
2022/10/09 06:36:10;;;;;;;11.22;9.23;;;;;;;20.70;46.46;101148.27;1697670;84;21283;-80
2022/10/09 06:38:42;;;;;;;15.00;10.35;;;;;;;20.71;46.45;101142.18;1698131;84;21991;-80
2022/10/09 06:41:14;;;;;;;12.10;9.20;;;;;;;20.70;46.42;101145.51;1697428;84;21021;-80
2022/10/09 06:43:40;;;;;;;12.25;9.28;;;;;;;20.70;46.43;101141.92;1697648;84;21053;-80
2022/10/09 06:46:11;;;;;;;12.65;9.70;;;;;;;20.70;46.45;101155.19;1699603;83;21304;-80
2022/10/09 06:48:38;;;;;;;;;;;;;;;20.71;46.45;101149.09;1703660;84;21144;-80
2022/10/09 06:51:07;;;;;;;13.18;9.08;;;;;;;20.71;46.41;101153.24;1701290;83;21147;-80
2022/10/09 06:53:42;;;;;;;12.93;8.95;;;;;;;20.70;46.45;101148.83;1706293;83;21144;-81
2022/10/09 06:56:14;;;;;;;11.50;9.30;;;;;;;20.69;46.44;101147.19;1709054;82;21084;-80
2022/10/09 06:58:41;;;;;;;14.75;9.35;;;;;;;20.70;46.47;101150.22;1708910;82;21143;-80
2022/10/09 07:01:15;;;;;;;12.80;8.85;;;;;;;20.70;46.47;101151.04;1708948;82;21072;-80
2022/10/09 07:03:44;;;;;;;11.78;9.23;;;;;;;20.70;46.49;101143.30;1709166;82;21081;-80
2022/10/09 07:06:22;;;;;;;15.85;8.93;;;;;;;20.71;46.48;101153.24;1709447;83;21072;-81
2022/10/09 07:08:54;;;;;;;13.38;9.50;;;;;;;20.71;46.49;101149.09;1709079;82;21334;-80
2022/10/09 07:11:25;;;;;;;12.60;9.55;;;;;;;20.71;46.50;101151.27;1709510;82;21040;-80
2022/10/09 07:13:56;;;;;;;12.10;8.58;;;;;;;20.71;46.49;101149.89;1709279;83;21104;-80
2022/10/09 07:16:26;;;;;;;9.45;8.28;;;;;;;20.72;46.52;101152.09;1709696;82;21194;-81
2022/10/09 07:18:53;;;;;;;11.88;8.80;;;;;;;20.73;46.50;101153.73;1709329;82;21053;-80
2022/10/09 07:21:20;;;;;;;13.13;9.50;;;;;;;20.72;46.50;101157.06;1719615;82;21311;-80
2022/10/09 07:23:46;;;;;;;10.98;8.60;;;;;;;20.73;46.50;101157.88;1742170;81;21527;-80
2022/10/09 07:26:18;;;;;;;12.88;8.78;;;;;;;20.73;46.50;101164.23;1721253;82;21100;-81
2022/10/09 07:28:51;;;;;;;13.10;8.88;;;;;;;20.72;46.51;101157.06;1741878;82;21717;-80
2022/10/09 07:31:17;;;;;;;12.30;9.15;;;;;;;20.74;46.51;101156.20;1742288;82;21045;-80
2022/10/09 07:33:47;;;;;;;12.60;9.08;;;;;;;20.73;46.48;101157.32;1742273;82;21104;-81
2022/10/09 07:36:13;;;;;;;12.30;9.00;;;;;;;20.74;46.50;101156.20;1741917;82;21112;-80
2022/10/09 07:38:39;;;;;;;10.93;8.43;;;;;;;20.74;46.50;101159.52;1742370;82;21024;-80
2022/10/09 07:41:08;;;;;;;10.72;8.53;;;;;;;20.75;46.49;101161.17;1741884;82;21210;-81
2022/10/09 07:43:36;;;;;;;12.63;8.95;;;;;;;20.75;46.50;101155.64;1741700;81;21047;-80
2022/10/09 07:46:03;;;;;;;11.55;8.68;;;;;;;20.75;46.49;101159.20;1742446;82;21107;-80
2022/10/09 07:48:29;;;;;;;11.35;8.43;;;;;;;20.75;46.50;101161.96;1742093;82;21049;-80
2022/10/09 07:50:56;;;;;;;10.65;8.75;;;;;;;20.75;46.49;101159.20;1741605;81;21629;-80
2022/10/09 07:53:22;;;;;;;10.82;8.30;;;;;;;20.76;46.50;101160.84;1720763;82;21744;-80
2022/10/09 07:55:48;;;;;;;11.28;8.93;;;;;;;20.76;46.49;101162.22;1741514;80;21069;-80
2022/10/09 07:58:16;;;;;;;11.53;8.78;;;;;;;20.76;46.48;101163.61;1727203;82;21581;-80
2022/10/09 08:00:42;;;;;;;11.57;9.13;;;;;;;20.77;46.48;101170.78;1697489;83;21096;-80
2022/10/09 08:03:09;;;;;;;12.15;8.38;;;;;;;20.78;46.48;101166.07;1697567;83;21049;-81
2022/10/09 08:05:35;;;;;;;14.03;8.65;;;;;;;20.77;46.46;101165.81;1685818;83;21971;-80
2022/10/09 08:08:07;;;;;;;12.70;9.50;;;;;;;20.77;46.49;101155.57;1685073;85;21039;-81
2022/10/09 08:10:34;;;;;;;12.37;8.88;;;;;;;20.78;46.46;101157.77;1685353;84;21114;-80
2022/10/09 08:13:00;;;;;;;11.08;8.33;;;;;;;20.78;46.47;101164.12;1688870;83;21064;-81
2022/10/09 08:15:27;;;;;;;11.00;8.38;;;;;;;20.79;46.48;101165.74;1700591;84;21623;-80
2022/10/09 08:17:53;;;;;;;10.08;8.53;;;;;;;20.79;46.44;101167.72;1700367;83;21178;-80
2022/10/09 08:20:25;;;;;;;12.80;8.90;;;;;;;20.79;46.47;101166.34;1700243;83;21045;-80
2022/10/09 08:22:51;;;;;;;12.35;8.23;;;;;;;20.80;46.46;101166.56;1700428;83;21096;-80
2022/10/09 08:25:17;;;;;;;11.05;8.48;;;;;;;20.79;46.45;101169.89;1700354;83;21043;-80
2022/10/09 08:27:44;;;;;;;13.95;8.88;;;;;;;20.80;46.43;101173.48;1700188;83;21073;-80
2022/10/09 08:30:11;;;;;;;10.25;8.08;;;;;;;20.80;46.44;101171.53;1700569;83;21164;-80
2022/10/09 08:32:39;;;;;;;11.63;9.20;;;;;;;20.81;46.45;101166.83;1700594;84;21040;-80
2022/10/09 08:35:06;;;;;;;11.43;8.98;;;;;;;20.80;46.43;101160.47;1700301;83;21121;-81
2022/10/09 08:37:32;;;;;;;12.00;8.40;;;;;;;20.80;46.46;101167.39;1700282;84;21046;-81
2022/10/09 08:39:59;;;;;;;11.60;8.10;;;;;;;20.81;46.43;101164.06;1700932;83;21088;-80
2022/10/09 08:42:38;;;;;;;11.12;8.05;;;;;;;20.81;46.45;101164.06;1701246;84;21760;-81
2022/10/09 08:45:07;;;;;;;11.88;8.68;;;;;;;20.81;46.42;101157.97;1701308;83;21144;-80
2022/10/09 08:47:48;;;;;;;11.15;8.75;;;;;;;20.80;46.41;101157.70;1679184;84;21160;-80
2022/10/09 08:50:27;;;;;;;12.05;8.98;;;;;;;20.80;46.41;101156.33;1701138;84;21042;-80
2022/10/09 08:53:13;;;;;;;11.08;8.75;;;;;;;20.81;46.41;101162.12;1701595;83;21826;-80
2022/10/09 08:55:57;;;;;;;10.10;7.92;;;;;;;20.81;46.41;101157.97;1694198;82;21990;-80
2022/10/09 08:58:33;;;;;;;10.53;8.28;;;;;;;20.80;46.40;101149.41;1701482;83;22206;-80
2022/10/09 09:01:04;;;;;;;10.28;8.43;;;;;;;20.81;46.39;101155.77;1701726;84;21733;-80
2022/10/09 09:03:57;;;;;;;10.28;7.72;;;;;;;20.80;46.40;101154.94;1698379;84;21045;-80
2022/10/09 09:06:41;;;;;;;11.05;8.63;;;;;;;20.81;46.39;101160.73;1701685;83;21041;-81
2022/10/09 09:09:20;;;;;;;11.20;7.67;;;;;;;20.81;46.41;101160.73;1701689;84;39117;-80
2022/10/09 09:12:14;;;;;;;9.68;7.55;;;;;;;20.80;46.40;101158.27;1701005;83;21065;-80
2022/10/09 09:15:15;;;;;;;10.78;7.80;;;;;;;20.81;46.39;101163.50;1705575;83;21526;-80
2022/10/09 09:18:11;;;;;;;10.08;7.90;;;;;;;20.81;46.40;101160.73;1745296;82;21096;-80
2022/10/09 09:21:01;;;;;;;10.50;7.65;;;;;;;20.81;46.39;101158.53;1744999;82;21060;-80
2022/10/09 09:23:33;;;;;;;10.93;8.47;;;;;;;20.80;46.37;101148.03;1745289;81;21303;-80
2022/10/09 09:26:00;;;;;;;8.90;7.58;;;;;;;20.80;46.35;101155.50;1745378;81;21071;-80
2022/10/09 09:28:32;;;;;;;9.38;7.65;;;;;;;20.80;46.37;101149.41;1725636;82;21072;-80
2022/10/09 09:31:19;;;;;;;9.78;7.45;;;;;;;20.81;46.38;101151.61;1745083;82;21654;-80
2022/10/09 09:34:35;;;;;;;10.75;7.92;;;;;;;20.81;46.40;101150.23;1726178;82;21049;-80
2022/10/09 09:37:02;;;;;;;10.58;7.75;;;;;;;20.80;46.39;101156.33;1745598;81;22065;-80
2022/10/09 09:39:31;;;;;;;9.68;7.37;;;;;;;20.81;46.39;101156.59;1725823;82;21049;-81
2022/10/09 09:42:10;;;;;;;9.85;8.18;;;;;;;20.81;46.39;101159.91;1745811;81;21096;-81
2022/10/09 09:44:44;;;;;;;10.25;7.62;;;;;;;20.82;46.39;101156.03;1745387;81;21504;-80
2022/10/09 09:47:18;;;;;;;9.90;7.92;;;;;;;20.82;46.38;101156.03;1724590;82;21041;-81
2022/10/09 09:49:59;;;;;;;9.88;7.60;;;;;;;20.81;46.38;101155.77;1690376;84;21587;-80
2022/10/09 09:52:30;;;;;;;9.73;7.80;;;;;;;20.81;46.38;101160.73;1691142;83;21543;-80
2022/10/09 09:54:57;;;;;;;11.45;7.78;;;;;;;20.83;46.38;101159.88;1691282;83;21501;-80
2022/10/09 09:57:37;;;;;;;10.80;7.80;;;;;;;20.83;46.37;101153.52;1691104;84;21068;-81
2022/10/09 10:00:22;;;;;;;13.50;8.10;;;;;;;20.83;46.37;101152.96;1691137;83;21290;-80
2022/10/09 10:02:49;;;;;;;10.43;7.42;;;;;;;20.83;46.34;101149.37;1691066;84;21079;-80
2022/10/09 10:05:25;;;;;;;9.18;7.50;;;;;;;20.83;46.34;101143.28;1690929;84;20992;-80
2022/10/09 10:07:51;;;;;;;11.70;7.65;;;;;;;20.84;46.35;101135.77;1691036;84;21609;-80
2022/10/09 10:10:22;;;;;;;10.38;7.50;;;;;;;20.84;46.33;101144.07;1690930;84;21122;-80
2022/10/09 10:12:57;;;;;;;10.50;7.58;;;;;;;20.84;46.35;101146.28;1691318;84;21513;-81
2022/10/09 10:15:28;;;;;;;9.83;7.37;;;;;;;20.85;46.37;101150.69;1690732;83;21233;-81
2022/10/09 10:18:06;;;;;;;10.80;8.15;;;;;;;20.85;46.33;101145.72;1691125;83;21031;-80
2022/10/09 10:20:43;;;;;;;9.08;7.05;;;;;;;20.85;46.33;101141.56;1690615;84;21091;-80
2022/10/09 10:23:38;;;;;;;9.38;7.30;;;;;;;20.84;46.32;101140.75;1690683;83;21083;-80
2022/10/09 10:26:16;;;;;;;8.73;7.50;;;;;;;20.84;46.32;101140.75;1703757;83;21124;-80
2022/10/09 10:29:01;;;;;;;9.90;7.12;;;;;;;20.85;46.30;101138.23;1708740;82;21139;-80
2022/10/09 10:31:53;;;;;;;9.48;7.28;;;;;;;20.86;46.29;101143.21;1745024;82;21606;-81
2022/10/09 10:34:26;;;;;;;8.45;7.45;;;;;;;20.84;46.29;101135.22;1745472;81;21595;-81
2022/10/09 10:37:04;;;;;;;9.08;7.10;;;;;;;20.85;46.27;101140.19;1745005;81;21052;-80
2022/10/09 10:39:38;;;;;;;10.85;7.85;;;;;;;20.85;46.29;101141.00;1745625;81;21072;-80
2022/10/09 10:42:06;;;;;;;9.78;7.00;;;;;;;20.84;46.29;101136.59;1745348;81;21283;-80
2022/10/09 10:44:49;;;;;;;10.50;7.45;;;;;;;20.85;46.26;101136.03;1745339;82;21570;-80
2022/10/09 10:47:20;;;;;;;8.70;7.28;;;;;;;20.85;46.29;101132.70;1745451;82;21036;-80
2022/10/09 10:49:46;;;;;;;8.48;7.10;;;;;;;20.85;46.26;101134.09;1745797;81;21068;-80
2022/10/09 10:52:30;;;;;;;9.95;7.65;;;;;;;20.84;46.27;101128.30;1745475;82;21064;-80
2022/10/09 10:55:14;;;;;;;10.10;7.37;;;;;;;20.85;46.26;101125.80;1745090;80;22091;-80
2022/10/09 10:57:52;;;;;;;8.18;6.97;;;;;;;20.85;46.25;101126.36;1729385;81;21028;-80
2022/10/09 11:00:26;;;;;;;8.30;6.92;;;;;;;20.85;46.25;101120.27;1745017;81;21689;-80
2022/10/09 11:03:16;;;;;;;8.48;7.03;;;;;;;20.85;46.25;101115.30;1745486;81;22060;-80
2022/10/09 11:06:02;;;;;;;8.63;6.95;;;;;;;20.85;46.25;101123.03;1745373;81;20974;-80
2022/10/09 11:09:04;;;;;;;9.43;6.87;;;;;;;20.85;46.25;101115.30;1745493;82;21554;-80
2022/10/09 11:11:45;;;;;;;7.83;6.45;;;;;;;20.84;46.25;101110.88;1744954;81;21653;-81
2022/10/09 11:14:20;;;;;;;7.58;6.78;;;;;;;20.86;46.23;101114.17;1742036;81;21483;-81
2022/10/09 11:17:16;;;;;;;9.13;6.67;;;;;;;20.84;46.23;101106.17;1739517;82;21037;-81
2022/10/09 11:20:26;;;;;;;9.50;7.10;;;;;;;20.85;46.23;101104.23;1739741;82;21076;-80
2022/10/09 11:23:26;;;;;;;9.58;7.03;;;;;;;20.84;46.24;101104.80;1739446;82;21955;-80
2022/10/09 11:26:30;;;;;;;8.80;7.25;;;;;;;20.83;46.23;101100.41;1739184;82;21033;-80
2022/10/09 11:29:07;;;;;;;9.73;6.78;;;;;;;20.84;46.23;101107.56;1739693;82;21060;-80
2022/10/09 11:31:41;;;;;;;8.35;6.72;;;;;;;20.83;46.23;101101.80;1739564;82;21045;-81
2022/10/09 11:34:13;;;;;;;8.85;6.60;;;;;;;20.84;46.24;101095.67;1739270;82;21088;-80
2022/10/09 11:36:41;;;;;;;9.23;6.83;;;;;;;20.84;46.25;101101.20;1739531;81;21952;-80